Time;durP1;ratioP1;P1;durP2;ratioP2;P2;SDS_P1;SDS_P2;PMS_P1;PMS_P2;Temp;Humidity;BMP_temperature;BMP_pressure;BME280_temperature;BME280_humidity;BME280_pressure;Samples;Min_cycle;Max_cycle;Signal;HPM_P1;HPM_P2
2021/01/08 00:00:55;;;;;;;28.30;26.20;;;2.60;89.50;;;;;;5014275;28;20193;-77
2021/01/08 00:03:22;;;;;;;26.10;24.00;;;2.60;88.40;;;;;;5014356;28;20202;-77
2021/01/08 00:05:49;;;;;;;34.50;26.80;;;2.60;90.60;;;;;;5014058;28;20256;-77
2021/01/08 00:08:16;;;;;;;1893.77;284.20;;;2.60;90.40;;;;;;4999575;28;600542;-77
2021/01/08 00:10:42;;;;;;;24.02;22.20;;;2.60;95.20;;;;;;5035028;28;20463;-78
2021/01/08 00:13:08;;;;;;;23.45;21.38;;;2.50;95.40;;;;;;5034880;28;20205;-77
2021/01/08 00:15:35;;;;;;;23.10;21.40;;;2.60;99.00;;;;;;5034787;28;20197;-77
2021/01/08 00:18:02;;;;;;;24.13;22.23;;;2.50;95.90;;;;;;5030878;28;20586;-77
2021/01/08 00:20:28;;;;;;;24.10;22.35;;;2.60;95.10;;;;;;5015389;28;20194;-77
2021/01/08 00:22:55;;;;;;;25.38;23.48;;;2.50;92.30;;;;;;5015136;28;20563;-77
2021/01/08 00:25:21;;;;;;;25.02;23.30;;;2.50;91.00;;;;;;5015177;28;20204;-78
2021/01/08 00:27:47;;;;;;;27.15;25.13;;;2.50;89.50;;;;;;5016094;28;20214;-77
2021/01/08 00:30:15;;;;;;;24.55;22.75;;;2.50;89.80;;;;;;5034619;28;20678;-77
2021/01/08 00:32:42;;;;;;;41.17;25.38;;;2.50;91.50;;;;;;5027708;28;20198;-78
2021/01/08 00:35:10;;;;;;;24.77;23.00;;;2.50;92.30;;;;;;5015197;28;20213;-77
2021/01/08 00:37:37;;;;;;;25.95;23.95;;;2.60;90.80;;;;;;5014903;28;20579;-78
2021/01/08 00:40:04;;;;;;;25.58;23.73;;;2.60;89.40;;;;;;5014970;28;20198;-78
2021/01/08 00:42:30;;;;;;;25.50;23.70;;;2.60;91.20;;;;;;5014756;28;20198;-78
2021/01/08 00:44:56;;;;;;;25.95;24.08;;;2.70;89.60;;;;;;5015615;28;20198;-78
2021/01/08 00:47:23;;;;;;;53.15;25.92;;;2.70;91.10;;;;;;5016173;28;20221;-77
2021/01/08 00:49:50;;;;;;;25.15;23.13;;;2.70;89.40;;;;;;5015464;28;20201;-77
2021/01/08 00:52:17;;;;;;;1999.90;457.40;;;2.70;89.60;;;;;;5017001;28;20591;-78
2021/01/08 00:54:47;;;;;;;25.08;23.15;;;2.60;94.80;;;;;;5034734;28;20235;-77
2021/01/08 00:57:14;;;;;;;24.77;22.98;;;2.60;96.00;;;;;;5036319;28;20714;-77
2021/01/08 00:59:40;;;;;;;25.88;23.77;;;2.50;94.10;;;;;;5039870;28;20197;-78
2021/01/08 01:02:07;;;;;;;25.25;23.35;;;2.50;92.70;;;;;;5030533;28;20202;-78
2021/01/08 01:04:33;;;;;;;26.10;24.00;;;2.50;90.90;;;;;;5021014;28;20224;-77
2021/01/08 01:07:00;;;;;;;23.73;22.05;;;2.50;90.50;;;;;;5016305;28;20233;-77
2021/01/08 01:09:27;;;;;;;24.50;22.70;;;2.50;90.30;;;;;;5014316;28;20257;-77
2021/01/08 01:11:53;;;;;;;23.90;22.20;;;2.50;94.60;;;;;;5021019;28;20193;-77
2021/01/08 01:14:20;;;;;;;22.58;20.75;;;2.60;91.20;;;;;;5034117;28;20193;-77
2021/01/08 01:16:46;;;;;;;23.05;21.35;;;2.60;93.90;;;;;;5033627;28;20221;-77
2021/01/08 01:19:12;;;;;;;38.83;24.83;;;2.60;92.60;;;;;;5033733;28;20200;-77
2021/01/08 01:21:38;;;;;;;24.25;22.45;;;2.60;91.20;;;;;;5033293;28;20200;-77
2021/01/08 01:24:06;;;;;;;25.85;24.00;;;2.60;88.50;;;;;;5033332;28;20197;-78
2021/01/08 01:26:34;;;;;;;25.13;23.17;;;2.60;87.60;;;;;;5033412;28;20224;-77
2021/01/08 01:29:00;;;;;;;25.33;23.67;;;2.60;86.80;;;;;;5033714;28;20203;-77
2021/01/08 01:31:27;;;;;;;24.65;22.75;;;2.60;86.50;;;;;;5033187;28;20297;-77
2021/01/08 01:33:53;;;;;;;25.52;23.70;;;2.50;86.40;;;;;;5033687;28;20727;-78
2021/01/08 01:36:20;;;;;;;25.00;23.20;;;2.50;86.20;;;;;;5033303;28;20633;-77
2021/01/08 01:38:46;;;;;;;25.40;23.65;;;2.40;86.40;;;;;;5033610;28;20224;-77
2021/01/08 01:41:12;;;;;;;24.30;22.60;;;2.30;86.40;;;;;;5032569;28;20744;-77
2021/01/08 01:43:39;;;;;;;25.67;23.67;;;2.30;86.80;;;;;;5013925;28;20537;-77
2021/01/08 01:46:06;;;;;;;24.83;22.85;;;2.20;89.90;;;;;;5013465;28;20222;-77
2021/01/08 01:48:33;;;;;;;1909.95;278.50;;;2.10;89.20;;;;;;5013667;28;20193;-77
2021/01/08 01:50:59;;;;;;;22.70;20.95;;;2.10;89.50;;;;;;5013389;28;20566;-77
2021/01/08 01:53:26;;;;;;;23.17;21.50;;;2.10;91.50;;;;;;5013714;28;20202;-78
2021/01/08 01:55:53;;;;;;;24.67;22.88;;;2.10;92.00;;;;;;5033142;28;20258;-77
2021/01/08 01:58:21;;;;;;;22.70;21.20;;;2.10;91.00;;;;;;5032891;28;20221;-77
2021/01/08 02:00:49;;;;;;;24.27;22.58;;;2.00;90.40;;;;;;5033081;28;20201;-77
2021/01/08 02:03:20;;;;;;;23.30;21.50;;;2.00;89.40;;;;;;5033235;28;20237;-77
2021/01/08 02:05:49;;;;;;;23.20;21.50;;;2.00;88.40;;;;;;5032287;28;20665;-78
2021/01/08 02:08:19;;;;;;;23.63;22.02;;;2.00;87.60;;;;;;5013212;28;20208;-77
2021/01/08 02:10:52;;;;;;;23.35;21.75;;;1.90;87.40;;;;;;5013343;28;20197;-77
2021/01/08 02:13:23;;;;;;;22.23;20.90;;;2.00;87.60;;;;;;5014088;28;20195;-77
2021/01/08 02:15:53;;;;;;;29.40;22.00;;;2.00;87.10;;;;;;5013221;28;20272;-77
2021/01/08 02:18:20;;;;;;;361.88;57.85;;;2.00;87.60;;;;;;5013980;28;20221;-77
2021/01/08 02:20:48;;;;;;;20.45;19.02;;;2.00;88.70;;;;;;5012982;28;20559;-77
2021/01/08 02:23:22;;;;;;;34.35;22.60;;;2.10;95.90;;;;;;5013520;28;20209;-77
2021/01/08 02:25:50;;;;;;;21.33;19.63;;;2.10;94.50;;;;;;5031796;28;20588;-77
2021/01/08 02:28:21;;;;;;;21.27;19.83;;;2.10;93.40;;;;;;5033083;28;20197;-77
2021/01/08 02:30:49;;;;;;;22.10;20.58;;;2.10;92.00;;;;;;5033284;28;20201;-78
2021/01/08 02:33:17;;;;;;;22.90;21.40;;;2.10;91.10;;;;;;5030311;28;20200;-77
2021/01/08 02:35:45;;;;;;;23.35;21.75;;;2.10;88.50;;;;;;5013191;28;20205;-77
2021/01/08 02:38:13;;;;;;;25.08;22.73;;;2.10;88.60;;;;;;5013557;28;20756;-77
2021/01/08 02:40:40;;;;;;;23.35;21.65;;;2.10;88.70;;;;;;5013634;28;20204;-77
2021/01/08 02:43:08;;;;;;;23.38;21.77;;;2.10;88.80;;;;;;5014569;28;20251;-77
2021/01/08 02:45:34;;;;;;;24.63;22.73;;;2.10;88.00;;;;;;5033668;28;20616;-77
2021/01/08 02:48:01;;;;;;;23.33;21.83;;;2.10;87.40;;;;;;5034363;28;20732;-77
2021/01/08 02:50:27;;;;;;;23.10;21.40;;;2.10;86.80;;;;;;5033141;28;20293;-77
2021/01/08 02:52:58;;;;;;;23.83;22.02;;;2.20;87.90;;;;;;5019044;28;20737;-77
2021/01/08 02:55:32;;;;;;;23.95;22.25;;;2.20;89.60;;;;;;5012733;28;20573;-78
2021/01/08 02:58:00;;;;;;;22.02;20.58;;;2.20;87.70;;;;;;5012597;28;20214;-77
2021/01/08 03:00:29;;;;;;;23.65;21.83;;;2.20;86.60;;;;;;5012761;28;20202;-77
2021/01/08 03:02:56;;;;;;;1066.80;161.25;;;2.10;89.70;;;;;;5025504;28;20204;-78
2021/01/08 03:05:23;;;;;;;1999.90;453.23;;;2.20;94.60;;;;;;5032421;28;20194;-77
2021/01/08 03:07:50;;;;;;;24.95;22.98;;;2.10;93.80;;;;;;5031357;28;20609;-77
2021/01/08 03:10:17;;;;;;;25.13;23.23;;;2.10;95.10;;;;;;5025201;28;20253;-77
2021/01/08 03:12:52;;;;;;;23.63;22.10;;;2.10;92.30;;;;;;5012837;28;20198;-77
2021/01/08 03:15:19;;;;;;;23.08;21.52;;;2.20;91.30;;;;;;5012773;28;20197;-77
2021/01/08 03:17:46;;;;;;;25.17;23.38;;;2.20;90.30;;;;;;5030879;28;20636;-77
2021/01/08 03:20:13;;;;;;;466.15;62.63;;;2.20;89.80;;;;;;5025953;28;20198;-76
2021/01/08 03:22:39;;;;;;;25.13;23.15;;;2.30;89.50;;;;;;5012578;28;20597;-77
2021/01/08 03:25:07;;;;;;;42.80;25.90;;;2.20;89.10;;;;;;5013903;28;20201;-77
2021/01/08 03:27:33;;;;;;;100.82;31.13;;;2.20;89.30;;;;;;5016015;28;20622;-77
2021/01/08 03:30:00;;;;;;;1022.25;135.00;;;2.20;89.80;;;;;;5016220;28;20202;-77
2021/01/08 03:32:26;;;;;;;24.40;22.40;;;2.20;89.80;;;;;;5032130;28;20579;-77
2021/01/08 03:34:53;;;;;;;24.35;22.55;;;2.20;91.90;;;;;;5035846;28;20194;-77
2021/01/08 03:37:20;;;;;;;23.92;22.20;;;2.20;89.90;;;;;;5035225;28;20221;-76
2021/01/08 03:39:46;;;;;;;24.73;23.05;;;2.20;89.40;;;;;;5017167;28;20202;-77
2021/01/08 03:42:12;;;;;;;25.42;23.52;;;2.10;88.70;;;;;;5016079;28;20202;-77
2021/01/08 03:44:39;;;;;;;24.80;23.05;;;2.10;88.70;;;;;;5016199;28;20732;-76
2021/01/08 03:47:05;;;;;;;34.22;25.23;;;2.10;88.60;;;;;;5015741;28;20210;-77
2021/01/08 03:49:37;;;;;;;255.30;49.78;;;2.10;88.10;;;;;;5015952;28;20206;-77
2021/01/08 03:52:05;;;;;;;24.60;22.88;;;2.20;88.70;;;;;;5015582;28;20202;-77
2021/01/08 03:54:32;;;;;;;739.65;119.05;;;2.20;87.80;;;;;;5015789;28;20209;-76
2021/01/08 03:56:58;;;;;;;23.45;21.80;;;2.10;91.30;;;;;;5015233;28;20213;-77
2021/01/08 03:59:24;;;;;;;374.85;58.03;;;2.10;91.60;;;;;;5015784;28;20186;-77
2021/01/08 04:01:51;;;;;;;1999.90;496.92;;;2.10;93.60;;;;;;5015362;28;20725;-77
2021/01/08 04:04:17;;;;;;;998.42;149.52;;;2.10;94.10;;;;;;5015261;28;20198;-77
2021/01/08 04:06:43;;;;;;;553.13;82.28;;;2.10;98.60;;;;;;5014847;28;20220;-77
2021/01/08 04:09:11;;;;;;;24.65;22.73;;;2.00;95.50;;;;;;5025144;28;20208;-77
2021/01/08 04:11:37;;;;;;;25.95;23.95;;;2.00;95.80;;;;;;5034908;28;20208;-77
2021/01/08 04:14:04;;;;;;;24.00;22.30;;;2.00;94.10;;;;;;5021104;28;20194;-77
2021/01/08 04:16:32;;;;;;;24.75;22.85;;;2.10;92.80;;;;;;5014840;28;20693;-76
2021/01/08 04:18:59;;;;;;;25.35;23.60;;;2.00;92.00;;;;;;5014707;28;20552;-77
2021/01/08 04:21:25;;;;;;;25.13;23.17;;;2.10;91.50;;;;;;5016883;28;20571;-77
2021/01/08 04:23:51;;;;;;;25.95;23.23;;;2.20;90.80;;;;;;5034221;28;20197;-77
2021/01/08 04:26:19;;;;;;;25.50;23.55;;;2.20;90.80;;;;;;5034388;28;20217;-76
2021/01/08 04:28:45;;;;;;;25.65;23.75;;;2.20;89.40;;;;;;5034672;28;20642;-77
2021/01/08 04:31:11;;;;;;;73.57;28.48;;;2.20;88.90;;;;;;5033872;28;20198;-77
2021/01/08 04:33:40;;;;;;;26.90;24.90;;;2.20;89.70;;;;;;5034663;28;20197;-77
2021/01/08 04:36:08;;;;;;;24.20;22.40;;;2.30;89.00;;;;;;5033134;28;20229;-77
2021/01/08 04:38:34;;;;;;;1999.90;440.33;;;2.20;92.10;;;;;;5034206;28;20221;-77
2021/01/08 04:41:01;;;;;;;26.38;24.35;;;2.20;94.00;;;;;;5033610;28;20666;-76
2021/01/08 04:43:29;;;;;;;24.00;22.20;;;2.30;94.20;;;;;;5034199;28;20599;-77
2021/01/08 04:45:58;;;;;;;26.30;24.30;;;2.30;91.80;;;;;;5032666;28;20197;-77
2021/01/08 04:48:26;;;;;;;25.52;23.60;;;2.30;89.50;;;;;;5034365;28;20194;-77
2021/01/08 04:50:58;;;;;;;24.67;22.98;;;2.20;89.10;;;;;;5033630;28;20198;-76
2021/01/08 04:53:26;;;;;;;27.15;25.25;;;2.30;88.50;;;;;;5014523;28;20205;-77
2021/01/08 04:55:53;;;;;;;25.60;23.83;;;2.20;88.00;;;;;;5014063;28;20566;-76
2021/01/08 04:58:19;;;;;;;1065.68;160.45;;;2.20;88.30;;;;;;5014044;28;20230;-77
2021/01/08 05:00:47;;;;;;;24.40;22.67;;;2.20;92.30;;;;;;5016788;28;20652;-77
2021/01/08 05:03:15;;;;;;;22.90;21.27;;;2.20;92.90;;;;;;5019095;28;20229;-77
2021/01/08 05:05:41;;;;;;;23.60;21.90;;;2.20;94.40;;;;;;5013987;28;20304;-77
2021/01/08 05:08:07;;;;;;;25.88;23.98;;;2.20;92.70;;;;;;5014082;28;20202;-77
2021/01/08 05:10:34;;;;;;;25.05;22.92;;;2.20;91.10;;;;;;5028771;28;20193;-77
2021/01/08 05:13:00;;;;;;;25.63;23.92;;;2.10;89.80;;;;;;5033440;28;20201;-77
2021/01/08 05:15:26;;;;;;;26.52;24.65;;;2.10;88.30;;;;;;5033617;28;20200;-77
2021/01/08 05:17:54;;;;;;;26.13;23.80;;;2.20;87.00;;;;;;5033667;28;20229;-77
2021/01/08 05:20:20;;;;;;;24.83;23.13;;;2.20;87.00;;;;;;5020564;28;20198;-77
2021/01/08 05:22:49;;;;;;;24.15;22.45;;;2.20;88.50;;;;;;5013860;28;20198;-77
2021/01/08 05:25:16;;;;;;;25.85;23.85;;;2.20;87.10;;;;;;5013864;28;20656;-76
2021/01/08 05:27:43;;;;;;;24.88;23.17;;;2.20;86.10;;;;;;5013617;28;20214;-77
2021/01/08 05:30:17;;;;;;;25.75;24.05;;;2.20;86.20;;;;;;5013653;28;20212;-77
2021/01/08 05:32:44;;;;;;;147.65;32.85;;;2.10;86.10;;;;;;5028861;28;20659;-77
2021/01/08 05:35:14;;;;;;;24.95;23.15;;;2.10;90.90;;;;;;5033059;28;20204;-77
2021/01/08 05:37:43;;;;;;;346.23;63.17;;;2.10;90.80;;;;;;5032759;28;20225;-77
2021/01/08 05:40:11;;;;;;;23.35;21.38;;;2.10;92.80;;;;;;5033227;28;20201;-77
2021/01/08 05:42:49;;;;;;;155.57;39.25;;;2.10;93.80;;;;;;5033223;28;20201;-77
2021/01/08 05:45:15;;;;;;;24.85;22.60;;;2.10;92.80;;;;;;5013418;28;20212;-77
2021/01/08 05:47:43;;;;;;;24.60;22.63;;;2.10;92.30;;;;;;5029109;28;20271;-77
2021/01/08 05:50:11;;;;;;;23.65;22.17;;;2.10;91.80;;;;;;5033009;28;20224;-76
2021/01/08 05:52:42;;;;;;;24.85;23.13;;;2.10;89.60;;;;;;5033138;28;20197;-77
2021/01/08 05:55:12;;;;;;;24.90;23.25;;;2.10;88.70;;;;;;5027856;28;20250;-77
2021/01/08 05:57:40;;;;;;;25.17;23.23;;;2.10;87.90;;;;;;5013558;28;20222;-77
2021/01/08 06:00:08;;;;;;;24.02;22.20;;;2.10;87.40;;;;;;5017418;28;20202;-77
2021/01/08 06:02:35;;;;;;;360.80;64.03;;;2.10;87.70;;;;;;5033967;28;20586;-77
2021/01/08 06:05:05;;;;;;;158.43;34.72;;;2.10;89.60;;;;;;5029129;28;20200;-77
2021/01/08 06:07:36;;;;;;;184.85;40.08;;;2.20;88.30;;;;;;5016131;28;20221;-77
2021/01/08 06:10:06;;;;;;;24.98;23.17;;;2.10;91.10;;;;;;5032980;28;20259;-76
2021/01/08 06:12:37;;;;;;;29.02;24.92;;;2.20;89.10;;;;;;5027464;28;20198;-77
2021/01/08 06:15:06;;;;;;;23.92;22.42;;;2.10;89.10;;;;;;5013174;28;20198;-77
2021/01/08 06:17:34;;;;;;;164.20;41.67;;;2.10;88.50;;;;;;5012660;28;20221;-77
2021/01/08 06:20:02;;;;;;;25.35;23.60;;;2.10;89.10;;;;;;5013061;28;20567;-77
2021/01/08 06:22:36;;;;;;;99.07;29.17;;;2.20;88.20;;;;;;5013282;28;20201;-76
2021/01/08 06:25:02;;;;;;;22.95;21.35;;;2.10;92.00;;;;;;5013049;28;20198;-77
2021/01/08 06:27:33;;;;;;;24.88;23.02;;;2.20;89.30;;;;;;5012991;28;20214;-77
2021/01/08 06:30:01;;;;;;;45.05;24.05;;;2.30;87.40;;;;;;5012943;28;20189;-77
2021/01/08 06:32:31;;;;;;;24.58;23.13;;;2.20;87.50;;;;;;5024047;28;20199;-77
2021/01/08 06:35:05;;;;;;;25.75;24.15;;;2.10;87.60;;;;;;5032513;28;20255;-77
2021/01/08 06:37:38;;;;;;;23.73;22.23;;;2.20;86.20;;;;;;5032578;28;20654;-77
2021/01/08 06:40:06;;;;;;;25.00;23.30;;;2.20;85.50;;;;;;5012684;28;20194;-76
2021/01/08 06:42:43;;;;;;;23.52;22.02;;;2.20;85.50;;;;;;5012651;28;20599;-77
2021/01/08 06:45:12;;;;;;;23.67;22.13;;;2.20;87.40;;;;;;5012694;28;20201;-77
2021/01/08 06:47:43;;;;;;;25.50;23.80;;;2.30;91.00;;;;;;5022778;28;20217;-77
2021/01/08 06:50:16;;;;;;;25.00;23.38;;;2.40;87.00;;;;;;5026026;28;20198;-76
2021/01/08 06:52:45;;;;;;;24.02;22.50;;;2.40;85.20;;;;;;5012346;28;20246;-77
2021/01/08 06:55:15;;;;;;;26.08;24.40;;;2.40;85.10;;;;;;5012421;28;20201;-76
2021/01/08 06:57:49;;;;;;;25.75;23.98;;;2.40;84.80;;;;;;5022231;28;20291;-76
2021/01/08 07:00:21;;;;;;;24.83;23.15;;;2.40;85.20;;;;;;5034160;28;20323;-77
2021/01/08 07:02:52;;;;;;;22.98;21.55;;;2.40;88.20;;;;;;5027851;28;20202;-76
2021/01/08 07:05:19;;;;;;;24.88;23.10;;;2.30;89.30;;;;;;5016516;28;20285;-77
2021/01/08 07:07:47;;;;;;;23.58;22.08;;;2.30;87.80;;;;;;5026770;28;20213;-77
2021/01/08 07:10:16;;;;;;;39.17;24.75;;;2.40;86.70;;;;;;5036088;28;20205;-77
2021/01/08 07:12:43;;;;;;;23.13;21.63;;;2.40;86.60;;;;;;5025472;28;20205;-76
2021/01/08 07:15:11;;;;;;;23.90;22.20;;;2.40;86.60;;;;;;5019402;28;20208;-77
2021/01/08 07:17:40;;;;;;;25.35;23.65;;;2.50;86.00;;;;;;5035716;28;20229;-77
2021/01/08 07:20:08;;;;;;;24.10;22.48;;;2.50;85.90;;;;;;5035738;28;20204;-77
2021/01/08 07:22:37;;;;;;;23.10;21.60;;;2.60;85.60;;;;;;5035853;28;20201;-77
2021/01/08 07:25:06;;;;;;;23.77;22.20;;;2.60;85.20;;;;;;5028179;28;20606;-76
2021/01/08 07:27:33;;;;;;;25.88;24.17;;;2.70;84.30;;;;;;5024482;28;20213;-77
2021/01/08 07:30:01;;;;;;;26.55;24.80;;;2.70;83.70;;;;;;5035623;28;20658;-77
2021/01/08 07:32:34;;;;;;;26.00;24.10;;;2.80;83.00;;;;;;5018942;28;20725;-77
2021/01/08 07:35:14;;;;;;;24.13;22.52;;;2.70;83.40;;;;;;5028539;28;20200;-77
2021/01/08 07:38:06;;;;;;;24.33;22.73;;;2.70;83.90;;;;;;5025193;28;20221;-76
2021/01/08 07:40:33;;;;;;;24.27;22.77;;;2.70;83.80;;;;;;5013549;28;20198;-76
2021/01/08 07:43:01;;;;;;;24.25;22.60;;;2.80;83.80;;;;;;5015663;28;20251;-76
2021/01/08 07:45:50;;;;;;;25.25;23.45;;;2.90;83.40;;;;;;5015507;28;20198;-77
2021/01/08 07:48:22;;;;;;;23.90;22.30;;;2.80;83.60;;;;;;5035303;28;20194;-77
2021/01/08 07:50:56;;;;;;;24.70;22.95;;;2.90;83.70;;;;;;5035339;28;20201;-77
2021/01/08 07:53:48;;;;;;;23.75;22.15;;;2.80;83.00;;;;;;5035281;28;20196;-77
2021/01/08 07:56:17;;;;;;;24.02;22.45;;;2.90;83.00;;;;;;5030839;28;20215;-77
2021/01/08 07:58:44;;;;;;;24.60;22.90;;;2.90;83.00;;;;;;5021141;28;20305;-77
2021/01/08 08:01:13;;;;;;;24.08;22.50;;;2.90;83.00;;;;;;5034427;28;20205;-77
2021/01/08 08:03:41;;;;;;;25.08;23.23;;;2.90;82.80;;;;;;5020164;28;20198;-76
2021/01/08 08:06:09;;;;;;;457.35;72.63;;;3.00;83.40;;;;;;5014898;28;20579;-76
2021/01/08 08:08:42;;;;;;;23.83;22.23;;;2.90;84.40;;;;;;5018265;28;20200;-77
2021/01/08 08:11:10;;;;;;;24.27;22.35;;;2.90;85.20;;;;;;5026792;28;20189;-77
2021/01/08 08:13:37;;;;;;;44.55;24.35;;;3.00;84.20;;;;;;5015163;28;20671;-77
2021/01/08 08:16:04;;;;;;;25.33;23.33;;;2.90;86.40;;;;;;5014964;28;20221;-77
2021/01/08 08:18:30;;;;;;;23.90;22.20;;;3.00;86.40;;;;;;5015002;28;20217;-77
2021/01/08 08:21:08;;;;;;;23.60;22.00;;;3.00;83.90;;;;;;5014986;28;20248;-77
2021/01/08 08:23:34;;;;;;;23.95;22.40;;;3.10;83.50;;;;;;5014897;28;20205;-77
2021/01/08 08:26:01;;;;;;;22.60;21.20;;;3.10;82.90;;;;;;5032558;28;20300;-77
2021/01/08 08:28:28;;;;;;;23.27;21.88;;;3.20;82.70;;;;;;5034706;28;20197;-77
2021/01/08 08:30:54;;;;;;;24.58;23.05;;;3.20;82.10;;;;;;5015994;28;20202;-76
2021/01/08 08:33:22;;;;;;;23.70;22.25;;;3.20;82.60;;;;;;5014768;28;20290;-77
2021/01/08 08:35:48;;;;;;;24.20;22.60;;;3.20;82.40;;;;;;5014375;28;20834;-76
2021/01/08 08:38:16;;;;;;;22.58;21.27;;;3.20;82.30;;;;;;5014249;28;20698;-77
2021/01/08 08:40:43;;;;;;;24.52;22.92;;;3.20;82.00;;;;;;5031139;28;20189;-76
2021/01/08 08:43:09;;;;;;;22.65;21.35;;;3.20;82.30;;;;;;5034034;28;20225;-76
2021/01/08 08:45:36;;;;;;;24.23;22.73;;;3.30;82.10;;;;;;5033646;28;20559;-77
2021/01/08 08:48:07;;;;;;;22.13;20.83;;;3.20;82.20;;;;;;5034470;28;20210;-77
2021/01/08 08:50:34;;;;;;;22.73;21.40;;;3.20;82.80;;;;;;5034360;28;20207;-77
2021/01/08 08:53:10;;;;;;;22.83;21.48;;;3.20;83.90;;;;;;5017619;28;20202;-77
2021/01/08 08:55:39;;;;;;;22.23;20.83;;;3.30;82.30;;;;;;5014442;28;20216;-77
2021/01/08 08:58:08;;;;;;;22.10;20.80;;;3.30;82.40;;;;;;5014194;28;20226;-77
2021/01/08 09:00:36;;;;;;;23.25;21.95;;;3.10;82.80;;;;;;5014473;28;20206;-77
2021/01/08 09:03:15;;;;;;;22.25;20.95;;;3.10;83.30;;;;;;5014832;28;20202;-77
2021/01/08 09:05:42;;;;;;;22.70;21.30;;;3.30;82.90;;;;;;5014199;28;20237;-77
2021/01/08 09:08:14;;;;;;;22.90;21.40;;;3.20;83.60;;;;;;5016512;28;20202;-77
2021/01/08 09:10:51;;;;;;;20.90;19.70;;;3.30;82.90;;;;;;5014550;28;20220;-77
2021/01/08 09:13:21;;;;;;;23.40;21.90;;;3.20;86.10;;;;;;5014602;28;20198;-77
2021/01/08 09:15:56;;;;;;;21.67;20.38;;;3.30;84.10;;;;;;5013952;28;20202;-77
2021/01/08 09:18:37;;;;;;;22.42;21.13;;;3.30;83.80;;;;;;5021356;28;20208;-77
2021/01/08 09:21:08;;;;;;;21.40;20.23;;;3.40;83.90;;;;;;5033805;28;20558;-77
2021/01/08 09:23:37;;;;;;;21.90;20.55;;;3.40;83.00;;;;;;5028578;28;20208;-77
2021/01/08 09:26:05;;;;;;;21.30;20.00;;;3.50;83.30;;;;;;5013688;28;20217;-77
2021/01/08 09:28:40;;;;;;;216.38;37.35;;;3.50;85.10;;;;;;5013908;28;20198;-77
2021/01/08 09:31:07;;;;;;;23.63;21.50;;;3.60;84.80;;;;;;5029134;28;20562;-77
2021/01/08 09:33:33;;;;;;;19.30;18.20;;;3.60;85.80;;;;;;5029187;28;20202;-77
2021/01/08 09:36:00;;;;;;;20.00;18.90;;;3.70;89.30;;;;;;5013499;28;20213;-77
2021/01/08 09:38:29;;;;;;;21.40;20.00;;;3.60;87.40;;;;;;5013650;28;20228;-77
2021/01/08 09:40:56;;;;;;;22.52;21.13;;;3.60;85.80;;;;;;5013863;28;20659;-77
2021/01/08 09:43:24;;;;;;;22.38;21.08;;;3.70;83.10;;;;;;5014057;28;20194;-77
2021/01/08 09:46:04;;;;;;;22.77;21.30;;;3.70;81.30;;;;;;5016059;28;20198;-77
2021/01/08 09:48:31;;;;;;;22.00;20.70;;;3.80;82.40;;;;;;5013645;28;20204;-77
2021/01/08 09:51:04;;;;;;;22.25;21.05;;;3.80;81.20;;;;;;5013378;28;20614;-77
2021/01/08 09:53:35;;;;;;;21.65;20.50;;;3.90;79.40;;;;;;5016774;28;20199;-77
2021/01/08 09:56:14;;;;;;;20.52;19.10;;;3.90;80.90;;;;;;5026103;28;20214;-77
2021/01/08 09:58:42;;;;;;;22.05;20.65;;;4.00;80.40;;;;;;5014099;28;20217;-77
2021/01/08 10:01:10;;;;;;;20.50;19.30;;;3.90;82.30;;;;;;5021045;28;20193;-78
2021/01/08 10:03:36;;;;;;;21.55;20.35;;;4.00;85.20;;;;;;5020699;28;20194;-77
2021/01/08 10:06:03;;;;;;;21.50;20.08;;;4.00;81.80;;;;;;5013142;28;20771;-77
2021/01/08 10:08:30;;;;;;;19.77;18.67;;;4.00;84.60;;;;;;5027296;28;20201;-76
2021/01/08 10:10:58;;;;;;;21.70;20.50;;;3.90;85.30;;;;;;5014521;28;20204;-77
2021/01/08 10:13:24;;;;;;;22.33;21.13;;;4.10;80.50;;;;;;5013044;28;20655;-76
2021/01/08 10:15:54;;;;;;;21.85;20.70;;;4.10;78.20;;;;;;5013069;28;20667;-76
2021/01/08 10:18:25;;;;;;;21.92;20.73;;;4.20;76.90;;;;;;5013253;28;20218;-76
2021/01/08 10:20:53;;;;;;;23.30;22.00;;;4.30;77.30;;;;;;5029609;28;20224;-76
2021/01/08 10:23:21;;;;;;;22.58;21.48;;;4.30;78.70;;;;;;5032896;28;20197;-76
2021/01/08 10:25:48;;;;;;;22.67;21.40;;;4.20;79.80;;;;;;5032279;28;20194;-77
2021/01/08 10:28:20;;;;;;;22.58;21.27;;;4.30;77.40;;;;;;5023575;28;20229;-77
2021/01/08 10:30:48;;;;;;;21.80;20.60;;;4.30;77.50;;;;;;5013064;28;20209;-77
2021/01/08 10:33:16;;;;;;;23.45;22.08;;;4.30;77.20;;;;;;5028243;28;20193;-76
2021/01/08 10:35:49;;;;;;;22.40;21.10;;;4.40;76.40;;;;;;5036718;28;20201;-77
2021/01/08 10:38:16;;;;;;;22.80;21.45;;;4.40;75.80;;;;;;5027651;28;20275;-77
2021/01/08 10:40:42;;;;;;;22.27;20.98;;;4.30;74.80;;;;;;5023591;28;20193;-76
2021/01/08 10:43:09;;;;;;;22.60;21.33;;;4.30;78.20;;;;;;5036580;28;20196;-77
2021/01/08 10:45:36;;;;;;;23.88;22.50;;;4.20;75.60;;;;;;5036448;28;20205;-77
2021/01/08 10:48:02;;;;;;;23.42;22.13;;;4.10;77.20;;;;;;5036201;28;20216;-77
2021/01/08 10:50:29;;;;;;;22.75;21.45;;;4.20;75.70;;;;;;5036888;28;20197;-77
2021/01/08 10:52:56;;;;;;;23.02;21.73;;;4.20;76.00;;;;;;5036562;28;20201;-77
2021/01/08 10:55:22;;;;;;;22.85;21.55;;;4.20;76.00;;;;;;5036765;28;20666;-77
2021/01/08 10:57:48;;;;;;;22.40;21.20;;;4.30;76.20;;;;;;5018055;28;20226;-77
2021/01/08 11:00:19;;;;;;;23.67;22.13;;;4.30;77.00;;;;;;5016898;28;20293;-77
2021/01/08 11:02:45;;;;;;;24.23;22.73;;;4.50;76.80;;;;;;5016682;28;20202;-77
2021/01/08 11:05:12;;;;;;;23.58;22.17;;;4.70;76.50;;;;;;5025542;28;20546;-77
2021/01/08 11:07:40;;;;;;;25.00;23.50;;;4.80;75.10;;;;;;5035683;28;20658;-77
2021/01/08 11:10:07;;;;;;;23.83;22.48;;;4.90;74.80;;;;;;5036003;28;20285;-77
2021/01/08 11:12:34;;;;;;;23.63;22.30;;;5.00;73.80;;;;;;5034329;28;20193;-77
2021/01/08 11:15:01;;;;;;;26.27;24.23;;;4.90;71.10;;;;;;5036199;28;20193;-77
2021/01/08 11:17:28;;;;;;;24.13;22.63;;;4.60;76.70;;;;;;5035864;28;20209;-77
2021/01/08 11:19:54;;;;;;;25.08;23.58;;;4.60;74.30;;;;;;5035434;28;20273;-77
2021/01/08 11:22:21;;;;;;;24.83;23.33;;;4.60;76.10;;;;;;5018013;28;20202;-77
2021/01/08 11:24:51;;;;;;;24.38;22.98;;;4.60;73.60;;;;;;5016299;28;20194;-77
2021/01/08 11:27:17;;;;;;;23.98;22.67;;;4.60;72.80;;;;;;5016177;28;20214;-77
2021/01/08 11:29:43;;;;;;;24.80;23.25;;;4.50;73.20;;;;;;5016205;28;20201;-77
2021/01/08 11:32:10;;;;;;;25.83;24.33;;;4.60;72.90;;;;;;5030771;28;20216;-77
2021/01/08 11:34:39;;;;;;;24.45;22.88;;;4.70;72.90;;;;;;5035767;28;20212;-77
2021/01/08 11:37:06;;;;;;;24.55;23.15;;;4.80;74.30;;;;;;5029007;28;20214;-77
2021/01/08 11:39:32;;;;;;;25.20;23.73;;;4.80;73.30;;;;;;5015676;28;20226;-77
2021/01/08 11:41:59;;;;;;;24.73;23.35;;;4.90;73.20;;;;;;5029055;28;20195;-77
2021/01/08 11:44:26;;;;;;;26.05;24.33;;;4.60;70.70;;;;;;5035476;28;20676;-77
2021/01/08 11:46:52;;;;;;;25.67;24.17;;;4.40;71.70;;;;;;5034205;28;20217;-77
2021/01/08 11:49:19;;;;;;;23.90;22.60;;;4.50;71.70;;;;;;5035364;28;20266;-77
2021/01/08 11:51:46;;;;;;;25.00;23.50;;;4.40;71.60;;;;;;5023434;28;20556;-77
2021/01/08 11:54:12;;;;;;;25.58;23.88;;;4.50;71.20;;;;;;5015571;28;20201;-77
2021/01/08 11:56:39;;;;;;;25.15;23.75;;;4.60;71.00;;;;;;5016381;28;20817;-76
2021/01/08 11:59:06;;;;;;;25.20;23.80;;;4.50;70.00;;;;;;5015622;28;20279;-77
2021/01/08 12:01:32;;;;;;;26.10;24.50;;;4.40;70.60;;;;;;5028010;28;20206;-77
2021/01/08 12:04:00;;;;;;;25.20;23.25;;;4.30;70.30;;;;;;5015263;28;20194;-77
2021/01/08 12:06:28;;;;;;;24.73;23.33;;;4.20;71.20;;;;;;5015148;28;20730;-77
2021/01/08 12:08:55;;;;;;;24.85;23.38;;;4.20;71.30;;;;;;5031598;28;20193;-77
2021/01/08 12:11:21;;;;;;;24.67;23.17;;;4.20;71.00;;;;;;5030712;28;20190;-77
2021/01/08 12:13:48;;;;;;;24.98;23.48;;;4.10;71.10;;;;;;5023882;28;20252;-77
2021/01/08 12:16:23;;;;;;;25.25;23.75;;;3.90;72.30;;;;;;5030650;28;20248;-77
2021/01/08 12:18:49;;;;;;;26.00;24.30;;;4.10;72.30;;;;;;5014973;28;20225;-77
2021/01/08 12:21:15;;;;;;;26.25;24.65;;;3.90;72.00;;;;;;5027089;28;20198;-77
2021/01/08 12:23:42;;;;;;;25.25;23.70;;;3.90;72.70;;;;;;5034919;28;20197;-77
2021/01/08 12:26:13;;;;;;;25.88;24.48;;;4.00;71.60;;;;;;5031847;28;20217;-77
2021/01/08 12:28:39;;;;;;;24.42;22.90;;;3.80;72.00;;;;;;5014872;28;20810;-77
2021/01/08 12:31:06;;;;;;;26.35;24.65;;;3.50;72.80;;;;;;5014816;28;20244;-77
2021/01/08 12:33:33;;;;;;;27.08;25.38;;;3.40;73.70;;;;;;5014862;28;20548;-77
2021/01/08 12:35:59;;;;;;;25.15;23.45;;;3.30;74.20;;;;;;5021398;28;20241;-77
2021/01/08 12:38:26;;;;;;;25.40;23.90;;;3.30;75.00;;;;;;5034105;28;20610;-77
2021/01/08 12:40:52;;;;;;;24.98;23.38;;;3.50;74.40;;;;;;5023303;28;20197;-77